Minqin, China
Current Conditions -  °F | °C
As of 8:00 PM on Thursday 18 Dec 2014 (Local Time) from ZLLL Reporting Station
Smoke Smoke  
Wind Chill:   Ceiling: Unl
Heat Index: 14°   Visibility: 3mi
Dew Point: -4°   Wind: 4mph
Humidity: 45%   Direction: 320°NW
Pressure: 30.24"   Gusts: NA
Location:  38.63°N, 103.08°E
Report Text: ZLLL 181200Z 32002MPS 5000 FU NSC M10/M20 Q1024 NOSIG
Loading
Personal Weather Stations






























Interactive Weather Map New forecast layout! Learn more

10-Day Weather Forecast

Advertisements
Track Severe Weather on mobile